Time;durP1;ratioP1;P1;durP2;ratioP2;P2;SDS_P1;SDS_P2;PMS_P1;PMS_P2;Temp;Humidity;BMP_temperature;BMP_pressure;BME280_temperature;BME280_humidity;BME280_pressure;Samples;Min_cycle;Max_cycle;Signal;HPM_P1;HPM_P2
2022/04/11 00:00:23;;;;;;;6.58;4.00;;;;;;;12.23;53.68;99669.13;1744681;82;21433;-83
2022/04/11 00:02:51;;;;;;;8.75;4.47;;;;;;;12.18;53.85;99669.52;1744873;82;21111;-83
2022/04/11 00:05:18;;;;;;;9.33;4.37;;;;;;;12.14;54.07;99675.12;1744861;81;20893;-82
2022/04/11 00:07:47;;;;;;;9.55;5.40;;;;;;;12.10;54.27;99678.50;1744946;81;20900;-81
2022/04/11 00:10:13;;;;;;;8.53;5.30;;;;;;;12.06;54.46;99678.38;1744639;81;21288;-82
2022/04/11 00:12:41;;;;;;;8.70;3.90;;;;;;;12.02;54.61;99673.02;1744818;81;20964;-83
2022/04/11 00:15:10;;;;;;;6.62;3.77;;;;;;;11.97;54.79;99679.96;1744620;80;21256;-83
2022/04/11 00:17:38;;;;;;;9.00;3.92;;;;;;;11.96;54.94;99687.95;1744599;81;20846;-84
2022/04/11 00:20:07;;;;;;;12.55;4.00;;;;;;;11.94;55.07;99693.81;1744764;81;20885;-83
2022/04/11 00:22:36;;;;;;;4.67;4.00;;;;;;;11.90;55.18;99691.93;1744841;81;21370;-84
2022/04/11 00:25:06;;;;;;;9.25;4.22;;;;;;;11.90;55.33;99691.11;1744637;82;21493;-84
2022/04/11 00:27:34;;;;;;;5.17;3.87;;;;;;;11.87;55.50;99690.81;1744774;81;20972;-85
2022/04/11 00:30:01;;;;;;;8.58;4.72;;;;;;;11.84;55.63;99693.70;1745921;82;21500;-84
2022/04/11 00:32:29;;;;;;;5.92;4.33;;;;;;;11.81;55.83;99679.51;1744830;81;20909;-85
2022/04/11 00:34:56;;;;;;;8.93;3.75;;;;;;;11.78;55.97;99684.98;1747355;82;20980;-84
2022/04/11 00:37:22;;;;;;;9.98;4.53;;;;;;;11.75;56.09;99685.25;1746670;80;21011;-83
2022/04/11 00:39:50;;;;;;;8.00;3.90;;;;;;;11.74;56.25;99687.05;1746126;82;21413;-82
2022/04/11 00:42:17;;;;;;;6.12;3.35;;;;;;;11.72;56.40;99685.02;1745464;80;20905;-82
2022/04/11 00:44:43;;;;;;;9.28;4.03;;;;;;;11.69;56.54;99687.87;1744957;81;20893;-84
2022/04/11 00:47:10;;;;;;;7.37;4.00;;;;;;;11.68;56.67;99691.95;1744902;82;20901;-84
2022/04/11 00:49:37;;;;;;;7.05;3.98;;;;;;;11.65;56.80;99693.03;1744695;81;21413;-84
2022/04/11 00:52:06;;;;;;;7.95;4.28;;;;;;;11.62;56.93;99699.83;1744882;81;21839;-84
2022/04/11 00:54:33;;;;;;;6.15;3.37;;;;;;;11.59;57.05;99698.28;1744741;81;20976;-84
2022/04/11 00:56:59;;;;;;;7.03;3.70;;;;;;;11.56;57.17;99689.34;1745722;82;20885;-83
2022/04/11 00:59:26;;;;;;;7.03;4.00;;;;;;;11.54;57.32;99689.11;1745039;81;20952;-84
2022/04/11 01:01:52;;;;;;;7.90;4.80;;;;;;;11.51;57.41;99690.16;1734262;82;20995;-83
2022/04/11 01:04:23;;;;;;;9.88;5.30;;;;;;;11.49;57.57;99688.62;1744651;81;20921;-84
2022/04/11 01:06:56;;;;;;;13.00;5.40;;;;;;;11.48;57.73;99684.34;1744636;81;21411;-83
2022/04/11 01:09:26;;;;;;;7.25;4.97;;;;;;;11.45;57.83;99698.55;1744699;81;20964;-84
2022/04/11 01:11:54;;;;;;;8.05;3.65;;;;;;;11.44;57.96;99697.34;1744937;81;20980;-83
2022/04/11 01:14:20;;;;;;;5.90;3.52;;;;;;;11.42;58.01;99702.70;1744835;81;20936;-83
2022/04/11 01:16:50;;;;;;;8.13;4.22;;;;;;;11.40;58.17;99699.36;1746527;81;21140;-82
2022/04/11 01:19:16;;;;;;;8.93;6.20;;;;;;;11.38;58.31;99701.27;1745774;81;21020;-82
2022/04/11 01:21:45;;;;;;;10.98;5.10;;;;;;;11.34;58.47;99702.01;1744662;81;20968;-84
2022/04/11 01:24:13;;;;;;;11.18;4.97;;;;;;;11.33;58.79;99701.63;1744502;81;20944;-83
2022/04/11 01:26:40;;;;;;;9.70;4.37;;;;;;;11.28;58.90;99701.16;1744667;81;21355;-84
2022/04/11 01:29:08;;;;;;;14.60;5.85;;;;;;;11.24;59.03;99698.41;1744573;81;21230;-84
2022/04/11 01:31:37;;;;;;;6.72;5.20;;;;;;;11.21;59.20;99706.54;1744641;81;20893;-83
2022/04/11 01:34:04;;;;;;;11.55;5.95;;;;;;;11.19;59.29;99700.56;1744685;81;21446;-83
2022/04/11 01:36:32;;;;;;;11.18;6.22;;;;;;;11.15;59.40;99709.14;1744503;81;20979;-84
2022/04/11 01:38:59;;;;;;;8.85;5.75;;;;;;;11.11;59.56;99718.20;1744671;82;21390;-82
2022/04/11 01:41:26;;;;;;;10.95;5.25;;;;;;;11.08;59.67;99718.45;1744584;81;21289;-83
2022/04/11 01:43:53;;;;;;;6.55;4.22;;;;;;;11.07;59.87;99707.61;1744746;81;20921;-82
2022/04/11 01:46:20;;;;;;;8.23;4.20;;;;;;;11.07;60.01;99709.38;1745130;81;20928;-84
2022/04/11 01:48:49;;;;;;;8.60;4.75;;;;;;;11.06;60.09;99712.96;1744995;81;20865;-81
2022/04/11 01:51:16;;;;;;;14.25;6.35;;;;;;;11.06;60.15;99716.90;1744712;82;20905;-84
2022/04/11 01:53:43;;;;;;;10.35;5.12;;;;;;;11.05;60.24;99723.08;1744630;81;21123;-84
2022/04/11 01:56:11;;;;;;;7.97;4.53;;;;;;;11.03;60.34;99721.91;1757125;80;20919;-84
2022/04/11 01:58:38;;;;;;;9.80;4.45;;;;;;;11.00;60.43;99722.12;1757905;81;20896;-82
2022/04/11 02:01:04;;;;;;;8.18;4.35;;;;;;;10.95;60.55;99730.34;1760647;80;20908;-83
2022/04/11 02:03:33;;;;;;;8.83;5.22;;;;;;;10.92;60.68;99727.97;1758039;80;20936;-81
2022/04/11 02:05:59;;;;;;;6.17;4.30;;;;;;;10.90;60.84;99723.31;1758038;80;21100;-83
2022/04/11 02:08:28;;;;;;;8.08;4.50;;;;;;;10.86;61.13;99714.48;1758298;81;20904;-84
2022/04/11 02:10:58;;;;;;;9.93;5.05;;;;;;;10.82;61.45;99722.22;1758685;81;20912;-83
2022/04/11 02:13:26;;;;;;;10.23;5.90;;;;;;;10.76;61.79;99726.98;1758130;81;20952;-84
2022/04/11 02:15:54;;;;;;;10.48;5.20;;;;;;;10.72;62.04;99724.22;1758057;81;21439;-84
2022/04/11 02:18:20;;;;;;;9.30;5.17;;;;;;;10.68;62.45;99724.09;1758073;81;21231;-83
2022/04/11 02:20:49;;;;;;;12.30;6.10;;;;;;;10.65;62.93;99729.58;1757883;80;20876;-82
2022/04/11 02:23:17;;;;;;;17.27;9.73;;;;;;;10.61;63.39;99725.50;1730635;81;21031;-85
2022/04/11 02:25:43;;;;;;;16.20;5.72;;;;;;;10.59;63.58;99726.09;1758338;81;20999;-83
2022/04/11 02:28:12;;;;;;;8.43;5.53;;;;;;;10.58;63.86;99720.47;1757884;80;20924;-82
2022/04/11 02:30:39;;;;;;;14.03;5.10;;;;;;;10.58;64.01;99723.95;1757893;80;21891;-83
2022/04/11 02:33:08;;;;;;;7.03;4.65;;;;;;;10.57;64.08;99720.13;1757874;81;20889;-82
2022/04/11 02:35:34;;;;;;;9.80;6.55;;;;;;;10.55;64.21;99719.40;1758130;81;21429;-82
2022/04/11 02:38:01;;;;;;;9.48;4.80;;;;;;;10.50;64.40;99714.98;1758175;80;21354;-82
2022/04/11 02:40:29;;;;;;;9.50;5.22;;;;;;;10.46;64.76;99717.47;1758224;81;20896;-83
2022/04/11 02:43:09;;;;;;;7.60;5.12;;;;;;;10.42;64.93;99706.84;1758914;81;21130;-79
2022/04/11 02:45:37;;;;;;;7.45;5.42;;;;;;;10.38;65.04;99716.70;1758118;81;21016;-84
2022/04/11 02:48:05;;;;;;;8.18;4.33;;;;;;;10.38;65.24;99721.94;1758066;81;20975;-83
2022/04/11 02:50:33;;;;;;;11.03;5.35;;;;;;;10.39;65.41;99726.73;1758168;80;21512;-83
2022/04/11 02:53:04;;;;;;;10.18;5.10;;;;;;;10.39;65.54;99726.25;1757853;81;21497;-83
2022/04/11 02:55:32;;;;;;;8.78;5.70;;;;;;;10.40;65.61;99721.36;1750909;81;20901;-83
2022/04/11 02:57:59;;;;;;;12.05;5.15;;;;;;;10.42;65.76;99721.26;1744623;82;20888;-83
2022/04/11 03:00:29;;;;;;;15.48;6.92;;;;;;;10.43;65.84;99729.50;1744897;81;20893;-82
2022/04/11 03:02:57;;;;;;;19.75;13.43;;;;;;;10.44;65.90;99728.53;1744892;81;21378;-83
2022/04/11 03:05:26;;;;;;;12.05;7.35;;;;;;;10.46;65.98;99725.33;1745149;81;20921;-83
2022/04/11 03:07:53;;;;;;;13.00;8.08;;;;;;;10.48;66.00;99729.98;1744799;81;21088;-83
2022/04/11 03:10:20;;;;;;;22.30;10.35;;;;;;;10.50;66.07;99731.54;1745091;82;20842;-84
2022/04/11 03:12:48;;;;;;;18.85;5.97;;;;;;;10.51;66.06;99731.88;1745155;80;20920;-83
2022/04/11 03:15:15;;;;;;;20.17;7.58;;;;;;;10.54;66.12;99738.23;1744739;81;21367;-85
2022/04/11 03:17:44;;;;;;;10.23;6.45;;;;;;;10.57;66.17;99740.61;1744802;81;21489;-84
2022/04/11 03:20:12;;;;;;;9.23;5.20;;;;;;;10.57;66.36;99745.86;1745052;81;21389;-85
2022/04/11 03:22:40;;;;;;;15.43;5.40;;;;;;;10.59;66.70;99752.31;1745047;81;20924;-82
2022/04/11 03:25:09;;;;;;;15.80;6.00;;;;;;;10.58;66.58;99751.48;1745115;81;20901;-83
2022/04/11 03:27:37;;;;;;;10.28;6.05;;;;;;;10.59;66.55;99752.31;1747116;81;20893;-84
2022/04/11 03:30:08;;;;;;;8.48;6.03;;;;;;;10.61;66.77;99760.90;1745014;82;20941;-83
2022/04/11 03:32:36;;;;;;;12.78;5.87;;;;;;;10.64;66.93;99754.59;1744732;81;22490;-83
2022/04/11 03:35:06;;;;;;;15.13;6.37;;;;;;;10.70;66.97;99754.97;1744593;81;21468;-81
2022/04/11 03:37:33;;;;;;;15.25;6.40;;;;;;;10.76;67.04;99750.58;1744708;81;20988;-83
2022/04/11 03:40:02;;;;;;;10.38;6.15;;;;;;;10.86;67.00;99752.52;1742967;81;20882;-83
2022/04/11 03:42:30;;;;;;;15.65;7.10;;;;;;;10.95;66.89;99757.89;1744672;81;20845;-84
2022/04/11 03:44:57;;;;;;;12.33;5.45;;;;;;;11.04;66.74;99756.36;1744673;81;21138;-84
2022/04/11 03:47:23;;;;;;;15.98;6.42;;;;;;;11.15;66.66;99756.38;1744686;80;20910;-83
2022/04/11 03:49:50;;;;;;;20.72;6.60;;;;;;;11.23;66.37;99762.38;1715421;82;20905;-83
2022/04/11 03:52:20;;;;;;;13.50;6.30;;;;;;;11.28;66.18;99762.84;1744434;81;20991;-82
2022/04/11 03:54:47;;;;;;;9.40;5.47;;;;;;;11.36;66.00;99762.23;1745778;81;20916;-83
2022/04/11 03:57:14;;;;;;;12.58;5.50;;;;;;;11.43;65.78;99766.09;1758142;81;21208;-84
2022/04/11 03:59:42;;;;;;;9.35;4.97;;;;;;;11.52;65.57;99769.31;1757893;80;20983;-83
2022/04/11 04:02:09;;;;;;;11.30;4.53;;;;;;;11.66;65.48;99779.22;1758026;81;21323;-84
2022/04/11 04:04:37;;;;;;;15.45;5.97;;;;;;;11.78;65.14;99776.47;1758118;81;20908;-83
2022/04/11 04:07:05;;;;;;;11.75;5.80;;;;;;;11.91;64.67;99775.52;1758278;80;21020;-83
2022/04/11 04:09:31;;;;;;;9.33;4.80;;;;;;;11.99;64.31;99775.27;1759471;81;21240;-82
2022/04/11 04:11:58;;;;;;;11.63;5.42;;;;;;;12.10;63.89;99776.22;1759735;81;20853;-84
2022/04/11 04:14:36;;;;;;;14.07;6.17;;;;;;;12.26;63.53;99782.39;1756964;81;20889;-83
2022/04/11 04:17:04;;;;;;;11.40;5.83;;;;;;;12.47;63.15;99778.48;1742075;81;21060;-83
2022/04/11 04:19:39;;;;;;;12.40;6.08;;;;;;;12.71;62.53;99779.59;1757441;81;22021;-84
2022/04/11 04:22:07;;;;;;;13.62;7.03;;;;;;;12.89;61.60;99782.50;1757537;81;22128;-84
2022/04/11 04:24:36;;;;;;;9.70;6.33;;;;;;;13.04;61.10;99792.58;1757874;81;20896;-83
2022/04/11 04:27:06;;;;;;;12.28;6.90;;;;;;;13.18;60.66;99789.27;1758095;81;21390;-83
2022/04/11 04:29:35;;;;;;;8.33;5.70;;;;;;;13.29;60.31;99777.38;1758473;80;21378;-83
2022/04/11 04:32:02;;;;;;;8.15;5.97;;;;;;;13.40;60.25;99778.61;1757959;81;20900;-84
2022/04/11 04:34:31;;;;;;;18.40;9.48;;;;;;;13.53;59.74;99778.89;1758426;81;21822;-85
2022/04/11 04:37:00;;;;;;;17.77;9.95;;;;;;;13.66;59.21;99784.77;1757989;81;20928;-84
2022/04/11 04:39:27;;;;;;;20.17;11.28;;;;;;;13.84;58.80;99776.58;1757936;80;20928;-85
2022/04/11 04:41:54;;;;;;;20.23;10.03;;;;;;;14.12;58.52;99782.08;1757862;81;20947;-84
2022/04/11 04:44:22;;;;;;;14.85;9.95;;;;;;;14.45;57.78;99794.08;1757918;81;21014;-84
2022/04/11 04:46:50;;;;;;;14.78;9.60;;;;;;;15.24;55.81;99793.56;1758293;80;21134;-85
2022/04/11 04:49:19;;;;;;;27.85;13.45;;;;;;;15.24;55.81;99793.56;1757448;81;20853;-82
2022/04/11 04:51:47;;;;;;;28.50;15.20;;;;;;;15.60;54.82;99806.95;1758725;81;20885;-84
2022/04/11 04:54:14;;;;;;;24.82;13.72;;;;;;;15.91;53.91;99811.02;1760895;78;20976;-83
2022/04/11 04:56:43;;;;;;;22.30;13.80;;;;;;;16.19;53.04;99808.39;1750594;81;20912;-84
2022/04/11 04:59:15;;;;;;;22.93;12.80;;;;;;;16.48;52.45;99804.22;1745739;81;21114;-84
2022/04/11 05:01:43;;;;;;;23.25;15.70;;;;;;;16.76;51.67;99807.64;1747588;81;20968;-84
2022/04/11 05:04:10;;;;;;;14.80;13.05;;;;;;;17.03;51.41;99810.35;1719839;80;20999;-84
2022/04/11 05:06:37;;;;;;;16.73;13.18;;;;;;;17.29;50.70;99816.51;1747845;78;21160;-83
2022/04/11 05:09:04;;;;;;;16.17;12.70;;;;;;;17.40;50.21;99814.09;1745926;78;20896;-85
2022/04/11 05:11:32;;;;;;;16.35;13.10;;;;;;;17.37;50.47;99807.80;1744731;81;21138;-83
2022/04/11 05:13:59;;;;;;;15.68;13.90;;;;;;;17.44;50.75;99814.62;1744751;81;20920;-85
2022/04/11 05:16:29;;;;;;;15.63;13.90;;;;;;;17.54;50.79;99803.41;1744908;81;20901;-84
2022/04/11 05:18:56;;;;;;;18.40;14.70;;;;;;;17.68;50.70;99806.81;1744914;81;20925;-84
2022/04/11 05:21:23;;;;;;;15.43;12.90;;;;;;;17.74;50.47;99810.16;1744967;81;20952;-84
2022/04/11 05:23:50;;;;;;;18.17;16.25;;;;;;;17.71;50.06;99806.98;1714965;82;21127;-83
2022/04/11 05:26:18;;;;;;;18.67;15.60;;;;;;;17.43;50.45;99815.12;1744504;81;21401;-82
2022/04/11 05:28:46;;;;;;;21.33;15.68;;;;;;;17.13;50.96;99813.75;1744604;82;20937;-83
2022/04/11 05:31:13;;;;;;;20.70;16.27;;;;;;;16.74;51.72;99820.66;1744865;81;20964;-84
2022/04/11 05:33:41;;;;;;;18.35;15.13;;;;;;;16.43;52.74;99819.73;1744770;80;20940;-83
2022/04/11 05:36:09;;;;;;;16.12;14.35;;;;;;;16.20;53.02;99821.11;1745606;80;21221;-83
2022/04/11 05:38:38;;;;;;;16.90;15.10;;;;;;;15.88;53.76;99826.36;1745309;82;20893;-82
2022/04/11 05:41:04;;;;;;;17.77;15.20;;;;;;;15.58;54.50;99828.23;1744852;82;20924;-83
2022/04/11 05:43:34;;;;;;;21.15;16.12;;;;;;;15.40;55.17;99830.78;1744178;81;21012;-83
2022/04/11 05:46:02;;;;;;;23.30;18.05;;;;;;;15.42;55.33;99829.33;1744870;81;20842;-84
2022/04/11 05:48:32;;;;;;;21.48;17.20;;;;;;;15.43;55.44;99827.02;1744716;81;21288;-83
2022/04/11 05:50:59;;;;;;;23.05;17.40;;;;;;;15.42;55.54;99821.41;1744761;81;20893;-83
2022/04/11 05:53:26;;;;;;;26.27;18.15;;;;;;;15.44;55.74;99820.28;1744707;81;21489;-82
2022/04/11 05:55:53;;;;;;;23.73;17.95;;;;;;;15.37;55.73;99819.19;1745123;80;20937;-84
2022/04/11 05:58:20;;;;;;;22.20;17.73;;;;;;;15.33;55.80;99822.59;1744655;81;20881;-85
2022/04/11 06:00:46;;;;;;;22.60;17.07;;;;;;;15.27;55.96;99819.69;1744682;81;21880;-85
2022/04/11 06:03:13;;;;;;;25.12;16.10;;;;;;;15.17;55.93;99822.35;1744545;81;20929;-85
2022/04/11 06:05:41;;;;;;;25.90;19.05;;;;;;;15.05;56.54;99819.51;1744815;81;20905;-83
2022/04/11 06:08:08;;;;;;;21.02;15.80;;;;;;;14.71;57.66;99810.21;1744732;81;20897;-85
2022/04/11 06:10:38;;;;;;;23.70;16.48;;;;;;;14.71;57.66;99810.21;1744718;81;20893;-85
2022/04/11 06:13:06;;;;;;;27.55;17.90;;;;;;;14.60;57.81;99807.70;1744651;81;21287;-86
2022/04/11 06:15:33;;;;;;;22.15;15.85;;;;;;;14.53;58.28;99826.35;1744981;81;21003;-86
2022/04/11 06:18:00;;;;;;;19.05;13.40;;;;;;;14.49;58.38;99825.78;1746025;81;20901;-84
2022/04/11 06:20:28;;;;;;;20.10;13.48;;;;;;;14.33;58.80;99829.94;1747537;81;20854;-84
2022/04/11 06:22:55;;;;;;;21.20;12.30;;;;;;;13.99;59.56;99832.41;1745300;80;21008;-85
2022/04/11 06:25:22;;;;;;;17.80;12.00;;;;;;;13.66;60.46;99833.03;1745247;81;21118;-84
2022/04/11 06:27:50;;;;;;;16.95;11.60;;;;;;;13.39;61.29;99833.58;1745971;81;20909;-84
2022/04/11 06:30:17;;;;;;;18.35;10.70;;;;;;;13.22;62.13;99848.12;1745158;81;20897;-84
2022/04/11 06:32:44;;;;;;;18.37;11.48;;;;;;;13.12;62.53;99851.67;1744883;81;21000;-85
2022/04/11 06:35:11;;;;;;;18.62;10.63;;;;;;;12.95;63.03;99853.05;1744929;80;21394;-86
2022/04/11 06:37:39;;;;;;;18.82;10.95;;;;;;;12.82;63.61;99846.15;1744822;81;21775;-85
2022/04/11 06:40:10;;;;;;;18.23;10.05;;;;;;;12.70;64.07;99843.22;1744811;81;20909;-86
2022/04/11 06:42:37;;;;;;;19.17;11.22;;;;;;;12.63;64.54;99852.09;1745137;81;20916;-84
2022/04/11 06:45:07;;;;;;;20.62;9.30;;;;;;;12.59;64.79;99863.81;1745555;81;20901;-85
2022/04/11 06:47:36;;;;;;;17.82;9.68;;;;;;;12.52;65.08;99865.27;1745096;81;21457;-86
2022/04/11 06:50:04;;;;;;;12.55;8.80;;;;;;;12.48;65.30;99863.02;1744943;81;21247;-85
2022/04/11 06:52:32;;;;;;;21.52;9.58;;;;;;;12.46;65.35;99864.44;1744698;82;21382;-84
2022/04/11 06:54:58;;;;;;;14.45;8.45;;;;;;;12.40;65.45;99871.50;1745283;81;21031;-85
2022/04/11 06:57:25;;;;;;;17.55;9.65;;;;;;;12.34;65.65;99881.18;1754912;80;20940;-84
2022/04/11 06:59:52;;;;;;;17.80;10.08;;;;;;;12.28;65.91;99886.46;1758721;81;21197;-84
2022/04/11 07:02:21;;;;;;;16.35;9.35;;;;;;;12.26;66.13;99884.43;1760836;78;21047;-86
2022/04/11 07:04:47;;;;;;;17.20;9.90;;;;;;;12.29;66.41;99882.86;1759324;81;20904;-87
2022/04/11 07:07:14;;;;;;;12.93;8.88;;;;;;;12.31;66.46;99891.95;1758191;81;20940;-85
2022/04/11 07:09:40;;;;;;;14.33;8.48;;;;;;;12.32;66.36;99892.33;1758560;81;20901;-85
2022/04/11 07:12:10;;;;;;;20.30;9.53;;;;;;;12.36;66.30;99907.73;1758521;81;20900;-86
2022/04/11 07:14:36;;;;;;;12.13;8.20;;;;;;;12.38;66.03;99903.20;1758534;80;21068;-85
2022/04/11 07:17:04;;;;;;;12.85;7.53;;;;;;;12.40;66.10;99895.99;1758387;81;20888;-85
2022/04/11 07:19:31;;;;;;;9.40;6.67;;;;;;;12.44;66.03;99898.73;1758412;81;20888;-85
2022/04/11 07:21:59;;;;;;;14.00;6.55;;;;;;;12.51;65.83;99906.98;1758166;80;20944;-85
2022/04/11 07:24:26;;;;;;;13.80;7.67;;;;;;;12.53;65.70;99899.80;1758860;81;20872;-84
2022/04/11 07:26:52;;;;;;;11.00;6.25;;;;;;;12.54;65.68;99900.63;1758598;80;21274;-83
2022/04/11 07:29:19;;;;;;;16.82;5.90;;;;;;;12.53;65.60;99897.17;1758300;80;21377;-82
2022/04/11 07:31:45;;;;;;;16.12;7.08;;;;;;;12.51;65.49;99895.14;1758364;80;20900;-83
2022/04/11 07:34:13;;;;;;;13.13;5.83;;;;;;;12.47;65.55;99893.71;1758866;80;20963;-85
2022/04/11 07:36:40;;;;;;;13.88;6.55;;;;;;;12.48;65.69;99897.20;1759679;81;20916;-85
2022/04/11 07:39:07;;;;;;;10.40;6.10;;;;;;;12.47;65.58;99906.03;1759666;81;21208;-84
2022/04/11 07:41:33;;;;;;;10.72;5.78;;;;;;;12.43;65.70;99903.66;1759187;80;20944;-84
2022/04/11 07:44:03;;;;;;;10.32;5.40;;;;;;;12.42;65.59;99901.14;1759522;81;20935;-84
2022/04/11 07:46:32;;;;;;;14.30;6.50;;;;;;;12.36;65.55;99888.02;1760577;79;20932;-82
2022/04/11 07:49:00;;;;;;;12.58;5.22;;;;;;;12.31;65.80;99886.20;1758960;81;20976;-82
2022/04/11 07:51:29;;;;;;;11.65;4.85;;;;;;;12.32;65.75;99890.53;1759374;81;21158;-84
2022/04/11 07:53:56;;;;;;;11.57;5.92;;;;;;;12.35;65.61;99897.33;1758849;81;21477;-85
2022/04/11 07:56:36;;;;;;;8.60;5.08;;;;;;;12.38;65.43;99910.22;1758900;80;20967;-84
2022/04/11 07:59:05;;;;;;;10.25;4.22;;;;;;;12.34;65.27;99906.16;1759089;81;20948;-83
2022/04/11 08:01:33;;;;;;;16.60;5.80;;;;;;;12.29;65.37;99903.89;1759395;80;21037;-82
2022/04/11 08:04:01;;;;;;;9.03;4.78;;;;;;;12.27;65.21;99903.17;1759182;80;21318;-83
2022/04/11 08:06:31;;;;;;;9.23;4.60;;;;;;;12.27;65.24;99893.97;1759232;81;20920;-84
2022/04/11 08:08:59;;;;;;;7.85;3.98;;;;;;;12.26;64.78;99912.52;1758825;80;20924;-85
2022/04/11 08:11:27;;;;;;;5.40;4.20;;;;;;;12.21;64.74;99937.85;1758384;80;21449;-85
2022/04/11 08:13:55;;;;;;;7.72;4.33;;;;;;;12.19;64.74;99935.82;1758256;80;20983;-83
2022/04/11 08:16:26;;;;;;;8.63;3.92;;;;;;;12.22;64.95;99931.14;1758335;81;21445;-85
2022/04/11 08:18:53;;;;;;;7.90;3.83;;;;;;;12.33;64.77;99933.42;1758628;81;20948;-84
2022/04/11 08:21:19;;;;;;;14.18;8.73;;;;;;;12.48;64.75;99923.02;1759058;81;20885;-84
2022/04/11 08:23:46;;;;;;;17.70;10.95;;;;;;;12.59;64.46;99912.96;1758353;81;20861;-83
2022/04/11 08:26:13;;;;;;;12.63;4.58;;;;;;;12.70;64.01;99912.94;1758205;80;20920;-84
2022/04/11 08:28:40;;;;;;;7.03;3.40;;;;;;;12.85;63.58;99915.65;1759646;81;21088;-83
2022/04/11 08:31:07;;;;;;;8.75;4.00;;;;;;;13.02;63.39;99915.58;1759167;80;20880;-85
2022/04/11 08:33:35;;;;;;;7.30;4.22;;;;;;;13.16;62.77;99903.08;1758206;81;20927;-84
2022/04/11 08:36:03;;;;;;;9.98;3.72;;;;;;;13.47;61.76;99894.36;1758037;81;20899;-85
2022/04/11 08:38:30;;;;;;;7.00;3.95;;;;;;;13.47;61.76;99894.36;1758089;80;20896;-84
2022/04/11 08:40:57;;;;;;;4.12;3.25;;;;;;;13.60;61.52;99887.55;1758336;81;21087;-82
2022/04/11 08:43:26;;;;;;;7.45;3.75;;;;;;;13.70;60.97;99884.16;1757879;80;21019;-84
2022/04/11 08:45:53;;;;;;;8.73;3.47;;;;;;;13.77;60.58;99883.50;1758003;81;20979;-84
2022/04/11 08:48:23;;;;;;;7.45;4.35;;;;;;;13.83;59.96;99894.84;1757986;81;20896;-84
2022/04/11 08:50:49;;;;;;;6.10;4.60;;;;;;;13.82;59.76;99899.74;1758247;81;20885;-85
2022/04/11 08:53:21;;;;;;;7.97;4.00;;;;;;;13.82;59.00;99902.37;1757983;80;21149;-84
2022/04/11 08:55:49;;;;;;;10.38;4.25;;;;;;;13.82;59.00;99902.37;1758125;81;21465;-84
2022/04/11 08:58:16;;;;;;;5.65;3.67;;;;;;;13.82;59.37;99898.91;1747280;81;20941;-86
2022/04/11 09:00:42;;;;;;;6.72;4.33;;;;;;;13.85;59.59;99902.14;1744571;81;20940;-84
2022/04/11 09:03:09;;;;;;;7.17;4.28;;;;;;;13.93;59.08;99888.29;1744835;82;21336;-84
2022/04/11 09:05:36;;;;;;;5.22;3.92;;;;;;;13.93;59.08;99888.29;1744729;81;21137;-83
2022/04/11 09:08:04;;;;;;;5.53;4.20;;;;;;;13.93;58.83;99882.19;1744523;81;21027;-87
2022/04/11 09:10:37;;;;;;;4.95;3.92;;;;;;;13.96;58.93;99880.59;1744768;81;20893;-84
2022/04/11 09:13:08;;;;;;;7.47;3.75;;;;;;;13.95;58.60;99883.72;1747285;81;20925;-87
2022/04/11 09:15:45;;;;;;;5.58;3.17;;;;;;;13.95;58.75;99881.58;1745066;82;20936;-83
2022/04/11 09:18:12;;;;;;;4.53;3.08;;;;;;;13.93;58.62;99872.97;1745153;81;22126;-84
2022/04/11 09:20:42;;;;;;;7.22;3.65;;;;;;;13.88;58.44;99872.88;1744795;81;20933;-83
2022/04/11 09:23:20;;;;;;;6.35;4.03;;;;;;;13.91;58.76;99871.77;1745123;82;20889;-84
2022/04/11 09:25:48;;;;;;;6.62;2.98;;;;;;;14.08;58.52;99892.73;1747579;81;20916;-81
2022/04/11 09:28:16;;;;;;;5.10;2.90;;;;;;;14.08;58.52;99892.73;1747314;81;20956;-84
2022/04/11 09:30:44;;;;;;;4.05;3.00;;;;;;;14.15;57.75;99889.08;1746760;81;21156;-82
2022/04/11 09:33:12;;;;;;;6.40;2.65;;;;;;;14.20;57.83;99884.23;1710928;81;20983;-84
2022/04/11 09:35:41;;;;;;;3.85;2.50;;;;;;;14.25;57.66;99885.98;1744962;81;20881;-85
2022/04/11 09:38:18;;;;;;;6.95;3.12;;;;;;;14.29;57.43;99878.16;1743720;81;20913;-85
2022/04/11 09:40:50;;;;;;;3.12;2.25;;;;;;;14.41;57.80;99875.77;1743113;81;20945;-84
2022/04/11 09:43:28;;;;;;;9.50;2.37;;;;;;;14.60;57.25;99880.27;1743402;81;21996;-85
2022/04/11 09:45:55;;;;;;;14.87;10.85;;;;;;;14.82;56.69;99881.00;1744252;82;20881;-84
2022/04/11 09:48:24;;;;;;;32.88;25.45;;;;;;;14.93;55.23;99868.50;1744446;81;20896;-86
2022/04/11 09:50:52;;;;;;;12.03;6.25;;;;;;;14.92;54.72;99880.54;1744868;80;20861;-85
2022/04/11 09:53:24;;;;;;;15.05;10.03;;;;;;;14.85;55.21;99880.26;1744729;80;20857;-86
2022/04/11 09:55:53;;;;;;;2.95;2.22;;;;;;;14.89;55.38;99871.55;1746545;81;21234;-81
2022/04/11 09:58:23;;;;;;;4.85;2.90;;;;;;;15.18;54.80;99864.95;1753958;80;20967;-83
2022/04/11 10:00:51;;;;;;;5.00;2.52;;;;;;;15.18;54.80;99864.95;1758032;81;20857;-84
2022/04/11 10:03:21;;;;;;;3.27;2.90;;;;;;;15.40;54.48;99871.73;1758047;80;21346;-83
2022/04/11 10:05:50;;;;;;;3.62;2.65;;;;;;;15.58;53.09;99863.91;1758171;81;20849;-83
2022/04/11 10:11:24;;;;;;;4.25;2.67;;;;;;;15.69;52.49;99868.20;1884290;75;22433;-86
2022/04/11 10:13:51;;;;;;;7.22;2.50;;;;;;;15.60;52.69;99869.88;1861110;77;21286;-84
2022/04/11 10:16:20;;;;;;;5.87;2.55;;;;;;;15.51;52.56;99878.67;1860930;77;20902;-85
2022/04/11 10:18:46;;;;;;;5.40;2.87;;;;;;;15.40;52.40;99871.73;1857725;77;21487;-83
2022/04/11 10:21:14;;;;;;;4.83;2.85;;;;;;;15.37;52.96;99876.48;1858116;77;21360;-84
2022/04/11 10:24:01;;;;;;;3.95;2.45;;;;;;;15.29;52.82;99878.00;1861383;77;20946;-83
2022/04/11 10:26:41;;;;;;;2.80;2.20;;;;;;;15.20;52.74;99863.00;1861010;77;21439;-83
2022/04/11 10:29:31;;;;;;;5.75;2.90;;;;;;;15.15;52.82;99863.09;1805405;77;21360;-84
2022/04/11 10:32:18;;;;;;;1.70;1.60;;;;;;;15.18;53.60;99854.38;1859129;76;20946;-83
2022/04/11 10:34:56;;;;;;;3.37;2.08;;;;;;;15.23;53.02;99862.73;1860863;76;20879;-84
2022/04/11 10:37:26;;;;;;;3.85;1.82;;;;;;;15.23;52.67;99864.06;1860895;77;20836;-85
2022/04/11 10:39:54;;;;;;;3.40;2.00;;;;;;;15.25;52.42;99863.44;1863465;77;20843;-85
2022/04/11 10:42:25;;;;;;;3.30;2.02;;;;;;;15.26;52.52;99859.80;1858052;77;21247;-84
2022/04/11 10:44:56;;;;;;;2.30;1.95;;;;;;;15.23;52.26;99859.23;1860889;77;20832;-84
2022/04/11 10:47:30;;;;;;;4.05;2.17;;;;;;;15.26;52.51;99861.62;1861022;77;20864;-85
2022/04/11 10:50:14;;;;;;;2.75;2.12;;;;;;;15.24;52.09;99859.11;1831769;77;20942;-85
2022/04/11 10:52:42;;;;;;;5.58;2.55;;;;;;;15.25;52.74;99861.25;1861330;77;20871;-84
2022/04/11 10:55:23;;;;;;;4.85;2.30;;;;;;;15.35;51.98;99852.84;1830796;77;21758;-85
2022/04/11 10:58:02;;;;;;;3.35;1.85;;;;;;;15.34;51.44;99847.23;1831212;77;21303;-84
2022/04/11 11:00:40;;;;;;;4.80;2.20;;;;;;;15.25;51.63;99848.91;1859842;76;20937;-85
2022/04/11 11:03:13;;;;;;;3.30;2.30;;;;;;;15.19;51.75;99861.34;1861041;76;20954;-86
2022/04/11 11:05:50;;;;;;;3.75;2.50;;;;;;;15.13;51.73;99842.92;1861083;77;20875;-84
2022/04/11 11:08:27;;;;;;;3.80;1.75;;;;;;;15.10;52.27;99852.45;1861161;76;21059;-85
2022/04/11 11:11:23;;;;;;;4.75;2.35;;;;;;;15.05;51.99;99860.44;1829579;77;20891;-85
2022/04/11 11:13:56;;;;;;;2.33;2.10;;;;;;;14.94;52.33;99868.03;1860803;77;20981;-84
2022/04/11 11:16:26;;;;;;;3.40;2.17;;;;;;;14.89;52.26;99878.98;1861055;77;20951;-86
2022/04/11 11:18:59;;;;;;;2.10;1.85;;;;;;;14.90;52.49;99888.59;1860988;76;20839;-85
2022/04/11 11:21:36;;;;;;;1.95;1.67;;;;;;;14.92;52.36;99877.90;1861420;77;21887;-85
2022/04/11 11:24:11;;;;;;;2.37;1.65;;;;;;;14.96;52.56;99886.36;1862519;76;20906;-85
2022/04/11 11:26:52;;;;;;;2.70;1.65;;;;;;;15.06;52.13;99888.53;1860259;77;21332;-84
2022/04/11 11:29:30;;;;;;;1.67;1.50;;;;;;;15.21;51.90;99884.98;1829671;77;20962;-86
2022/04/11 11:32:03;;;;;;;2.77;2.05;;;;;;;15.41;51.56;99887.95;1860135;77;20907;-84
2022/04/11 11:34:33;;;;;;;2.60;1.55;;;;;;;15.56;51.17;99884.36;1860430;77;21136;-84
2022/04/11 11:37:10;;;;;;;2.15;1.98;;;;;;;15.69;50.95;99878.27;1860235;77;21089;-82